createdAt,value
2023-04-19T00:00:16.717Z,7.10
2023-04-19T00:02:44.981Z,7.10
2023-04-19T00:05:13.873Z,6.90
2023-04-19T00:07:43.862Z,7.00
2023-04-19T00:10:12.206Z,6.90
2023-04-19T00:12:40.299Z,6.80
2023-04-19T00:15:09.208Z,6.80
2023-04-19T00:17:37.730Z,6.80
2023-04-19T00:20:07.092Z,6.80
2023-04-19T00:22:35.466Z,6.70
2023-04-19T00:25:05.599Z,6.50
2023-04-19T00:27:33.800Z,6.40
2023-04-19T00:30:03.260Z,6.40
2023-04-19T00:32:31.786Z,6.30
2023-04-19T00:35:00.187Z,6.30
2023-04-19T00:37:28.296Z,6.30
2023-04-19T00:39:56.441Z,6.30
2023-04-19T00:42:26.246Z,6.10
2023-04-19T00:44:54.318Z,6.10
2023-04-19T00:47:22.435Z,6.10
2023-04-19T00:49:50.854Z,6.20
2023-04-19T00:52:19.428Z,6.20
2023-04-19T00:54:47.677Z,6.00
2023-04-19T00:57:17.009Z,6.10
2023-04-19T00:59:46.639Z,6.10
2023-04-19T01:02:15.252Z,6.10
2023-04-19T01:04:43.596Z,5.90
2023-04-19T01:07:11.924Z,5.80
2023-04-19T01:09:42.484Z,5.90
2023-04-19T01:12:10.624Z,5.80
2023-04-19T01:14:38.767Z,5.70
2023-04-19T01:17:08.883Z,5.60
2023-04-19T01:19:38.812Z,5.70
2023-04-19T01:22:07.302Z,5.50
2023-04-19T01:24:36.808Z,5.50
2023-04-19T01:27:05.029Z,5.50
2023-04-19T01:29:33.143Z,5.50
2023-04-19T01:32:01.207Z,5.40
2023-04-19T01:34:29.479Z,5.30
2023-04-19T01:36:57.592Z,5.30
2023-04-19T01:39:27.483Z,5.30
2023-04-19T01:41:57.018Z,5.30
2023-04-19T01:44:25.236Z,5.30
2023-04-19T01:46:53.680Z,5.20
2023-04-19T01:49:21.776Z,5.10
2023-04-19T01:51:49.876Z,5.20
2023-04-19T01:54:18.382Z,5.20
2023-04-19T01:56:46.495Z,5.20
2023-04-19T01:59:16.535Z,5.20
2023-04-19T02:01:44.833Z,5.30
2023-04-19T02:04:13.122Z,5.20
2023-04-19T02:06:41.359Z,5.10
2023-04-19T02:09:09.858Z,5.10
2023-04-19T02:11:38.082Z,5.00
2023-04-19T02:14:06.302Z,5.00
2023-04-19T02:16:36.347Z,4.90
2023-04-19T02:19:04.821Z,5.00
2023-04-19T02:21:33.246Z,4.80
2023-04-19T02:24:01.653Z,5.00
2023-04-19T02:26:30.039Z,5.00
2023-04-19T02:28:58.647Z,4.90
2023-04-19T02:31:27.214Z,4.90
2023-04-19T02:33:56.701Z,4.80
2023-04-19T02:36:24.857Z,4.90
2023-04-19T02:38:52.952Z,4.80
2023-04-19T02:41:21.052Z,4.70
2023-04-19T02:43:49.186Z,4.70
2023-04-19T02:46:17.300Z,4.80
2023-04-19T02:48:45.797Z,4.80
2023-04-19T02:51:18.277Z,4.70
2023-04-19T02:53:46.440Z,4.70
2023-04-19T02:56:14.517Z,4.60
2023-04-19T02:58:42.892Z,4.60
2023-04-19T03:01:11.256Z,4.60
2023-04-19T03:03:39.734Z,4.50
2023-04-19T03:06:08.538Z,4.60
2023-04-19T03:08:38.509Z,4.50
2023-04-19T03:11:07.601Z,4.50
2023-04-19T03:13:36.020Z,4.60
2023-04-19T03:16:04.217Z,4.50
2023-04-19T03:18:32.401Z,4.50
2023-04-19T03:21:00.635Z,4.60
2023-04-19T03:23:28.716Z,4.60
2023-04-19T03:25:58.382Z,4.50
2023-04-19T03:28:26.837Z,4.40
2023-04-19T03:30:55.288Z,4.40
2023-04-19T03:33:23.412Z,4.30
2023-04-19T03:35:51.501Z,4.30
2023-04-19T03:38:19.599Z,4.30
2023-04-19T03:40:47.839Z,4.30
2023-04-19T03:43:17.493Z,4.30
2023-04-19T03:45:45.789Z,4.30
2023-04-19T03:48:13.923Z,4.30
2023-04-19T03:50:42.333Z,4.30
2023-04-19T03:53:10.824Z,4.30
2023-04-19T03:55:38.901Z,4.40
2023-04-19T03:58:06.969Z,4.40
2023-04-19T04:00:37.909Z,4.30
2023-04-19T04:03:06.546Z,4.30
2023-04-19T04:05:35.934Z,4.30
2023-04-19T04:08:04.559Z,4.30
2023-04-19T04:10:32.979Z,4.30
2023-04-19T04:13:01.386Z,4.30
2023-04-19T04:15:29.854Z,4.30
2023-04-19T04:17:59.388Z,4.30
2023-04-19T04:20:27.621Z,4.30
2023-04-19T04:22:55.827Z,4.40
2023-04-19T04:25:24.342Z,4.30
2023-04-19T04:27:53.041Z,4.40
2023-04-19T04:30:21.452Z,4.40
2023-04-19T04:32:51.413Z,4.50
2023-04-19T04:35:21.677Z,4.50
2023-04-19T04:37:49.889Z,4.60
2023-04-19T04:40:18.134Z,4.60
2023-04-19T04:42:46.630Z,4.70
2023-04-19T04:45:18.180Z,5.20
2023-04-19T04:47:47.309Z,5.20
2023-04-19T04:50:15.550Z,5.20
2023-04-19T04:52:45.053Z,5.30
2023-04-19T04:55:13.451Z,5.60
2023-04-19T04:57:41.595Z,5.70
2023-04-19T05:00:11.324Z,5.90
2023-04-19T05:02:39.466Z,6.00
2023-04-19T05:05:08.176Z,6.10
2023-04-19T05:07:36.576Z,6.20
2023-04-19T05:10:07.290Z,6.40
2023-04-19T05:12:35.528Z,6.50
2023-04-19T05:15:04.180Z,6.70
2023-04-19T05:17:32.433Z,7.00
2023-04-19T05:20:00.644Z,7.00
2023-04-19T05:22:28.889Z,7.20
2023-04-19T05:24:57.015Z,7.30
2023-04-19T05:27:26.536Z,7.60
2023-04-19T05:29:54.893Z,7.80
2023-04-19T05:32:23.295Z,7.70
2023-04-19T05:34:51.464Z,7.80
2023-04-19T05:37:19.553Z,7.80
2023-04-19T05:39:47.731Z,8.20
2023-04-19T05:42:15.958Z,8.50
2023-04-19T05:44:45.513Z,8.50
2023-04-19T05:47:14.066Z,9.10
2023-04-19T05:49:43.473Z,8.60
2023-04-19T05:52:11.760Z,8.90
2023-04-19T05:54:39.941Z,8.70
2023-04-19T05:57:08.431Z,9.00
2023-04-19T05:59:36.546Z,8.90
2023-04-19T06:02:06.188Z,9.50
2023-04-19T06:04:34.629Z,9.60
2023-04-19T06:07:04.579Z,9.00
2023-04-19T06:09:34.417Z,9.10
2023-04-19T06:12:02.532Z,9.90
2023-04-19T06:14:30.895Z,10.10
2023-04-19T06:16:58.989Z,9.00
2023-04-19T06:19:28.467Z,9.70
2023-04-19T06:21:56.583Z,9.90
2023-04-19T06:24:24.691Z,10.20
2023-04-19T06:26:53.103Z,10.10
2023-04-19T06:29:21.824Z,9.10
2023-04-19T06:31:50.075Z,9.90
2023-04-19T06:34:18.532Z,10.40
2023-04-19T06:36:48.342Z,10.00
2023-04-19T06:39:16.989Z,10.70
2023-04-19T06:41:45.100Z,11.00
2023-04-19T06:44:13.477Z,10.70
2023-04-19T06:46:41.706Z,9.90
2023-04-19T06:49:09.814Z,10.50
2023-04-19T06:51:39.078Z,10.60
2023-04-19T06:54:08.650Z,10.30
2023-04-19T06:56:45.765Z,11.30
2023-04-19T06:59:14.750Z,10.90
2023-04-19T07:01:42.989Z,10.70
2023-04-19T07:04:11.904Z,11.60
2023-04-19T07:06:40.763Z,11.20
2023-04-19T07:09:10.557Z,10.90
2023-04-19T07:11:38.730Z,11.20
2023-04-19T07:14:06.873Z,12.10
2023-04-19T07:16:35.276Z,11.70
2023-04-19T07:19:03.405Z,11.60
2023-04-19T07:21:33.526Z,12.50
2023-04-19T07:24:01.952Z,12.80
2023-04-19T07:26:31.504Z,13.20
2023-04-19T07:29:00.182Z,12.70
2023-04-19T07:31:29.566Z,12.30
2023-04-19T07:33:57.713Z,13.00
2023-04-19T07:36:25.848Z,13.30
2023-04-19T07:38:53.938Z,12.50
2023-04-19T07:41:22.154Z,12.90
2023-04-19T07:43:51.591Z,13.50
2023-04-19T07:46:19.746Z,13.20
2023-04-19T07:48:47.875Z,13.40
2023-04-19T07:51:17.590Z,13.60
2023-04-19T07:53:47.359Z,13.90
2023-04-19T07:56:16.224Z,13.70
2023-04-19T07:58:46.763Z,14.10
2023-04-19T08:01:21.446Z,13.90
2023-04-19T08:03:49.803Z,13.80
2023-04-19T08:06:19.161Z,14.40
2023-04-19T08:08:48.617Z,14.30
2023-04-19T08:11:18.158Z,12.50
2023-04-19T08:13:59.482Z,13.60
2023-04-19T08:19:06.995Z,14.20
2023-04-19T08:21:41.108Z,13.80
2023-04-19T08:24:09.746Z,13.20
2023-04-19T08:26:39.045Z,14.20
2023-04-19T08:29:07.849Z,13.60
2023-04-19T08:31:37.762Z,13.80
2023-04-19T08:36:45.910Z,14.70
2023-04-19T08:39:31.788Z,13.70
2023-04-19T08:42:10.516Z,14.80
2023-04-19T08:47:30.330Z,14.70
2023-04-19T08:52:44.484Z,15.30
2023-04-19T08:55:17.146Z,15.50
2023-04-19T08:57:45.671Z,14.30
2023-04-19T09:00:14.913Z,14.80
2023-04-19T09:02:49.048Z,14.80
2023-04-19T09:05:19.395Z,14.90
2023-04-19T09:07:48.889Z,14.10
2023-04-19T09:10:19.345Z,14.20
2023-04-19T09:13:02.845Z,14.80
2023-04-19T09:15:39.961Z,15.20
2023-04-19T09:18:10.831Z,15.00
2023-04-19T09:20:40.504Z,14.30
2023-04-19T09:23:12.689Z,14.50
2023-04-19T09:26:05.933Z,14.40
2023-04-19T09:28:30.276Z,15.10
2023-04-19T09:31:10.635Z,16.10
2023-04-19T09:33:45.349Z,16.60
2023-04-19T09:36:27.457Z,16.00
2023-04-19T09:38:55.670Z,16.00
2023-04-19T09:41:24.277Z,14.90
2023-04-19T09:44:07.755Z,14.70
2023-04-19T09:46:42.662Z,13.70
2023-04-19T09:49:33.798Z,14.60
2023-04-19T09:52:16.004Z,14.30
2023-04-19T09:54:45.331Z,13.60
2023-04-19T09:57:14.132Z,14.40
2023-04-19T09:59:42.303Z,13.90
2023-04-19T10:02:14.064Z,14.30
2023-04-19T10:07:30.028Z,13.50
2023-04-19T10:15:07.060Z,14.30
2023-04-19T10:17:36.041Z,14.40
2023-04-19T10:20:10.751Z,13.80
2023-04-19T10:22:39.797Z,13.70
2023-04-19T10:25:13.073Z,14.80
2023-04-19T10:27:49.243Z,13.90
2023-04-19T10:30:21.534Z,14.50
2023-04-19T10:32:56.648Z,13.80
2023-04-19T10:35:29.420Z,13.70
2023-04-19T10:38:08.777Z,14.00
2023-04-19T10:41:01.116Z,14.90
2023-04-19T10:43:30.329Z,14.70
2023-04-19T10:46:02.538Z,14.30
2023-04-19T10:48:44.128Z,14.40
2023-04-19T10:51:19.350Z,15.00
2023-04-19T10:53:50.089Z,15.90
2023-04-19T10:56:20.157Z,16.20
2023-04-19T10:59:15.006Z,16.40
2023-04-19T11:01:44.531Z,14.30
2023-04-19T11:04:13.904Z,14.90
2023-04-19T11:07:01.492Z,14.30
2023-04-19T11:09:32.492Z,15.60
2023-04-19T11:12:02.448Z,14.50
2023-04-19T11:14:33.668Z,15.50
2023-04-19T11:17:02.248Z,15.40
2023-04-19T11:19:30.942Z,16.10
2023-04-19T11:22:01.429Z,15.90
2023-04-19T11:24:30.244Z,16.30
2023-04-19T11:26:58.932Z,15.20
2023-04-19T11:29:27.359Z,15.10
2023-04-19T11:31:55.909Z,14.50
2023-04-19T11:34:25.363Z,15.20
2023-04-19T11:36:53.900Z,15.30
2023-04-19T11:39:23.959Z,14.70
2023-04-19T11:41:52.173Z,15.20
2023-04-19T11:44:21.789Z,15.20
2023-04-19T11:47:00.902Z,15.60
2023-04-19T11:49:30.604Z,14.00
2023-04-19T11:52:02.446Z,14.00
2023-04-19T11:54:33.557Z,15.50
2023-04-19T11:57:06.245Z,15.40
2023-04-19T11:59:35.570Z,15.10
2023-04-19T12:02:10.764Z,15.00
2023-04-19T12:04:39.726Z,14.50
2023-04-19T12:07:08.780Z,15.40
2023-04-19T12:09:38.933Z,15.60
2023-04-19T12:12:07.682Z,15.70
2023-04-19T12:14:35.869Z,15.00
2023-04-19T12:17:09.202Z,14.30
2023-04-19T12:19:38.686Z,14.70
2023-04-19T12:22:14.521Z,15.40
2023-04-19T12:24:44.261Z,15.30
2023-04-19T12:27:12.542Z,15.30
2023-04-19T12:29:40.841Z,15.40
2023-04-19T12:32:09.286Z,16.00
2023-04-19T12:34:37.515Z,15.20
2023-04-19T12:37:05.600Z,15.40
2023-04-19T12:39:34.082Z,15.10
2023-04-19T12:42:03.571Z,15.30
2023-04-19T12:44:31.989Z,14.50
2023-04-19T12:47:00.068Z,14.60
2023-04-19T12:49:28.237Z,15.00
2023-04-19T12:51:57.598Z,14.60
2023-04-19T12:54:26.147Z,14.50
2023-04-19T12:56:54.532Z,14.30
2023-04-19T12:59:24.029Z,14.10
2023-04-19T13:01:52.188Z,14.70
2023-04-19T13:04:20.785Z,15.10
2023-04-19T13:06:49.403Z,15.60
2023-04-19T13:09:17.682Z,14.90
2023-04-19T13:11:45.789Z,14.70
2023-04-19T13:14:14.470Z,14.50
2023-04-19T13:16:44.162Z,14.30
2023-04-19T13:19:12.345Z,15.20
2023-04-19T13:21:40.443Z,15.00
2023-04-19T13:24:09.155Z,15.80
2023-04-19T13:26:37.765Z,15.80
2023-04-19T13:29:08.664Z,15.10
2023-04-19T13:31:37.183Z,14.30
2023-04-19T13:34:06.875Z,14.80
2023-04-19T13:36:35.329Z,14.70
2023-04-19T13:39:03.423Z,15.20
2023-04-19T13:41:31.519Z,15.00
2023-04-19T13:43:59.935Z,14.50
2023-04-19T13:46:28.113Z,14.90
2023-04-19T13:48:56.750Z,14.70
2023-04-19T13:51:33.180Z,15.20
2023-04-19T13:54:07.316Z,15.40
2023-04-19T13:56:35.407Z,15.10
2023-04-19T13:59:03.596Z,15.10
2023-04-19T14:01:31.697Z,14.90
2023-04-19T14:04:00.185Z,14.30
2023-04-19T14:06:29.904Z,14.60
2023-04-19T14:08:58.049Z,13.70
2023-04-19T14:11:26.906Z,13.80
2023-04-19T14:13:55.606Z,13.70
2023-04-19T14:16:25.406Z,13.70
2023-04-19T14:18:53.965Z,14.40
2023-04-19T14:21:22.548Z,14.40
2023-04-19T14:23:52.095Z,14.60
2023-04-19T14:26:20.727Z,14.40
2023-04-19T14:28:49.040Z,14.40
2023-04-19T14:31:17.493Z,14.20
2023-04-19T14:33:45.645Z,14.00
2023-04-19T14:36:13.771Z,14.00
2023-04-19T14:38:42.094Z,13.70
2023-04-19T14:41:11.951Z,13.90
2023-04-19T14:43:40.143Z,14.10
2023-04-19T14:46:09.449Z,13.70
2023-04-19T14:48:37.584Z,14.00
2023-04-19T14:51:05.880Z,14.00
2023-04-19T14:53:34.125Z,13.90
2023-04-19T14:56:05.270Z,13.70
2023-04-19T14:58:34.768Z,13.70
2023-04-19T15:01:12.200Z,13.80
2023-04-19T15:03:41.063Z,13.40
2023-04-19T15:06:09.493Z,13.90
2023-04-19T15:08:37.640Z,13.50
2023-04-19T15:11:05.991Z,13.80
2023-04-19T15:13:35.699Z,13.90
2023-04-19T15:16:04.014Z,13.90
2023-04-19T15:18:32.257Z,13.80
2023-04-19T15:21:00.397Z,13.60
2023-04-19T15:23:28.595Z,13.50
2023-04-19T15:25:56.684Z,13.60
2023-04-19T15:28:25.834Z,13.40
2023-04-19T15:31:04.177Z,13.30
2023-04-19T15:33:32.920Z,13.40
2023-04-19T15:36:01.114Z,13.30
2023-04-19T15:38:30.865Z,13.10
2023-04-19T15:40:59.926Z,13.10
2023-04-19T15:43:28.466Z,13.00
2023-04-19T15:45:56.940Z,13.00
2023-04-19T15:48:26.824Z,12.90
2023-04-19T15:50:54.939Z,12.90
2023-04-19T15:53:23.033Z,13.00
2023-04-19T15:55:51.189Z,12.70
2023-04-19T15:58:19.500Z,12.70
2023-04-19T16:00:47.718Z,13.00
2023-04-19T16:03:16.001Z,13.10
2023-04-19T16:05:45.605Z,12.90
2023-04-19T16:08:17.385Z,12.80
2023-04-19T16:10:46.141Z,12.90
2023-04-19T16:13:14.620Z,12.80
2023-04-19T16:15:43.463Z,12.70
2023-04-19T16:18:12.266Z,12.80
2023-04-19T16:20:41.360Z,13.10
2023-04-19T16:23:10.820Z,12.90
2023-04-19T16:25:41.382Z,13.00
2023-04-19T16:28:09.550Z,13.10
2023-04-19T16:30:37.831Z,13.00
2023-04-19T16:33:06.906Z,12.80
2023-04-19T16:35:35.115Z,12.80
2023-04-19T16:38:04.719Z,12.80
2023-04-19T16:40:34.207Z,12.70
2023-04-19T16:43:02.338Z,12.50
2023-04-19T16:45:30.584Z,12.40
2023-04-19T16:47:58.750Z,12.40
2023-04-19T16:50:26.999Z,12.20
2023-04-19T16:52:55.083Z,12.20
2023-04-19T16:55:23.601Z,12.10
2023-04-19T16:57:55.557Z,12.20
2023-04-19T17:00:23.772Z,12.40
2023-04-19T17:02:52.113Z,12.10
2023-04-19T17:05:20.482Z,12.10
2023-04-19T17:07:48.902Z,12.00
2023-04-19T17:10:17.091Z,11.90
2023-04-19T17:12:45.221Z,11.80
2023-04-19T17:15:14.687Z,11.80
2023-04-19T17:17:43.059Z,11.90
2023-04-19T17:20:11.830Z,11.60
2023-04-19T17:22:39.966Z,11.50
2023-04-19T17:25:08.708Z,11.50
2023-04-19T17:27:36.886Z,11.50
2023-04-19T17:30:07.192Z,11.30
2023-04-19T17:32:37.202Z,11.30
2023-04-19T17:35:06.633Z,11.40
2023-04-19T17:37:34.781Z,11.40
2023-04-19T17:40:02.930Z,11.40
2023-04-19T17:42:31.004Z,11.40
2023-04-19T17:45:00.272Z,11.30
2023-04-19T17:47:28.870Z,11.40
2023-04-19T17:50:07.208Z,11.10
2023-04-19T17:52:35.652Z,11.00
2023-04-19T17:55:04.671Z,11.00
2023-04-19T17:57:34.098Z,10.80
2023-04-19T18:00:06.842Z,10.70
2023-04-19T18:02:35.473Z,10.60
2023-04-19T18:05:05.531Z,10.80
2023-04-19T18:07:33.606Z,10.70
2023-04-19T18:10:02.061Z,10.60
2023-04-19T18:12:30.167Z,10.40
2023-04-19T18:14:58.739Z,10.20
2023-04-19T18:17:26.917Z,10.40
2023-04-19T18:19:55.074Z,10.00
2023-04-19T18:22:24.527Z,9.70
2023-04-19T18:24:53.493Z,9.20
2023-04-19T18:27:21.921Z,9.40
2023-04-19T18:29:52.548Z,9.50
2023-04-19T18:32:21.826Z,9.50
2023-04-19T18:34:49.992Z,9.30
2023-04-19T18:37:18.807Z,9.40
2023-04-19T18:39:48.535Z,9.40
2023-04-19T18:42:16.733Z,9.40
2023-04-19T18:44:53.633Z,9.10
2023-04-19T18:47:22.760Z,8.90
2023-04-19T18:50:03.664Z,8.80
2023-04-19T18:52:33.154Z,8.80
2023-04-19T18:55:02.730Z,8.50
2023-04-19T18:57:34.645Z,8.50
2023-04-19T19:00:05.436Z,8.60
2023-04-19T19:02:36.607Z,8.40
2023-04-19T19:05:07.494Z,8.30
2023-04-19T19:07:38.256Z,8.20
2023-04-19T19:10:19.186Z,8.10
2023-04-19T19:12:50.101Z,8.20
2023-04-19T19:15:19.628Z,8.20
2023-04-19T19:17:50.420Z,8.20
2023-04-19T19:20:20.018Z,8.10
2023-04-19T19:22:48.416Z,8.00
2023-04-19T19:25:18.075Z,8.10
2023-04-19T19:28:05.662Z,8.20
2023-04-19T19:30:34.649Z,7.80
2023-04-19T19:33:05.179Z,7.70
2023-04-19T19:35:33.665Z,7.40
2023-04-19T19:38:01.898Z,7.40
2023-04-19T19:40:32.810Z,7.40
2023-04-19T19:43:01.769Z,7.30
2023-04-19T19:45:30.664Z,7.40
2023-04-19T19:48:00.849Z,7.30
2023-04-19T19:53:01.015Z,7.40
2023-04-19T19:55:30.188Z,7.30
2023-04-19T20:00:45.088Z,7.30
2023-04-19T20:03:24.723Z,7.50
2023-04-19T20:06:05.525Z,7.40
2023-04-19T20:08:47.499Z,7.40
2023-04-19T20:11:15.719Z,7.30
2023-04-19T20:13:45.747Z,7.30
2023-04-19T20:16:14.673Z,7.30
2023-04-19T20:18:44.349Z,7.30
2023-04-19T20:21:12.821Z,7.30
2023-04-19T20:23:40.931Z,7.30
2023-04-19T20:26:09.155Z,7.20
2023-04-19T20:28:37.439Z,7.30
2023-04-19T20:31:07.145Z,7.20
2023-04-19T20:33:35.533Z,7.20
2023-04-19T20:36:03.726Z,7.30
2023-04-19T20:38:34.613Z,7.30
2023-04-19T20:41:03.153Z,7.30
2023-04-19T20:43:31.707Z,7.30
2023-04-19T20:45:59.913Z,7.40
2023-04-19T20:48:29.540Z,7.30
2023-04-19T20:50:58.037Z,7.20
2023-04-19T20:53:26.585Z,7.20
2023-04-19T20:55:54.822Z,7.20
2023-04-19T20:58:22.940Z,7.10
2023-04-19T21:00:51.170Z,7.10
2023-04-19T21:03:19.417Z,7.20
2023-04-19T21:05:48.967Z,7.20
2023-04-19T21:08:19.064Z,7.10
2023-04-19T21:10:47.133Z,7.10
2023-04-19T21:13:15.677Z,7.10
2023-04-19T21:15:44.169Z,7.20
2023-04-19T21:18:12.422Z,7.20
2023-04-19T21:20:40.684Z,7.20
2023-04-19T21:23:10.356Z,7.20
2023-04-19T21:25:38.423Z,7.20
2023-04-19T21:28:06.821Z,7.20
2023-04-19T21:30:38.645Z,7.10
2023-04-19T21:33:07.300Z,7.10
2023-04-19T21:35:35.886Z,7.10
2023-04-19T21:38:04.118Z,7.10
2023-04-19T21:40:33.724Z,7.10
2023-04-19T21:43:01.843Z,7.00
2023-04-19T21:45:30.401Z,7.00
2023-04-19T21:47:58.476Z,7.00
2023-04-19T21:50:26.595Z,7.00
2023-04-19T21:52:55.062Z,7.00
2023-04-19T21:55:23.439Z,7.00
2023-04-19T21:57:53.251Z,7.00
2023-04-19T22:00:21.381Z,7.00
2023-04-19T22:02:49.846Z,7.00
2023-04-19T22:05:18.238Z,7.00
2023-04-19T22:07:48.116Z,6.80
2023-04-19T22:10:16.596Z,6.70
2023-04-19T22:12:57.248Z,6.70
2023-04-19T22:15:27.956Z,6.70
2023-04-19T22:17:57.664Z,6.60
2023-04-19T22:20:26.857Z,6.70
2023-04-19T22:22:55.270Z,6.60
2023-04-19T22:25:23.661Z,6.40
2023-04-19T22:27:52.178Z,6.40
2023-04-19T22:30:20.388Z,6.20
2023-04-19T22:32:50.272Z,6.00
2023-04-19T22:35:20.653Z,6.00
2023-04-19T22:37:50.466Z,6.00
2023-04-19T22:40:18.596Z,6.10
2023-04-19T22:42:46.954Z,5.90
2023-04-19T22:45:15.136Z,5.80
2023-04-19T22:47:43.589Z,5.80
2023-04-19T22:50:13.268Z,5.70
2023-04-19T22:52:42.929Z,5.60
2023-04-19T22:55:11.974Z,5.80
2023-04-19T22:57:40.508Z,5.60
2023-04-19T23:00:10.726Z,5.50
2023-04-19T23:02:40.047Z,5.40
2023-04-19T23:05:09.010Z,5.50
2023-04-19T23:07:40.383Z,5.40
2023-04-19T23:10:10.262Z,5.40
2023-04-19T23:12:39.143Z,5.40
2023-04-19T23:15:09.743Z,5.40
2023-04-19T23:17:39.633Z,5.40
2023-04-19T23:20:11.219Z,5.40
2023-04-19T23:22:41.020Z,5.50
2023-04-19T23:25:10.068Z,5.50
2023-04-19T23:27:38.425Z,5.50
2023-04-19T23:30:08.994Z,5.60
2023-04-19T23:32:37.180Z,5.60
2023-04-19T23:35:06.091Z,5.40
2023-04-19T23:37:34.275Z,5.40
2023-04-19T23:40:04.351Z,5.40
2023-04-19T23:42:32.698Z,5.60
2023-04-19T23:45:00.821Z,5.60
2023-04-19T23:47:29.056Z,5.50
2023-04-19T23:49:57.161Z,5.50
2023-04-19T23:52:25.252Z,5.60
2023-04-19T23:54:53.689Z,5.70
2023-04-19T23:57:24.080Z,5.70
2023-04-19T23:59:52.485Z,5.70
